Time;durP1;ratioP1;P1;durP2;ratioP2;P2;SDS_P1;SDS_P2;PMS_P1;PMS_P2;Temp;Humidity;BMP_temperature;BMP_pressure;BME280_temperature;BME280_humidity;BME280_pressure;Samples;Min_cycle;Max_cycle;Signal;HPM_P1;HPM_P2
2022/09/07 00:04:40;;;;;;;6.50;2.57;;;;;;;14.50;59.00;101116.81;5095881;57;1139479;-66
2022/09/07 00:09:46;;;;;;;5.00;2.33;;;;;;;14.47;59.09;101113.08;5121884;57;1136978;-68
2022/09/07 00:14:53;;;;;;;13.83;2.87;;;;;;;14.45;59.16;101105.21;4978163;59;1137225;-68
2022/09/07 00:19:59;;;;;;;4.13;2.60;;;;;;;14.39;59.41;101101.69;5096751;57;1139206;-66
2022/09/07 00:25:06;;;;;;;8.80;2.60;;;;;;;14.33;59.69;101085.78;5122245;57;1137047;-66
2022/09/07 00:30:12;;;;;;;7.00;3.27;;;;;;;14.30;59.60;101092.69;5133631;56;1137025;-69
2022/09/07 00:35:18;;;;;;;16.93;3.50;;;;;;;14.26;59.73;101097.05;5159745;56;1137022;-67
2022/09/07 00:40:24;;;;;;;9.53;2.90;;;;;;;14.24;59.67;101098.50;5180432;56;1139065;-68
2022/09/07 00:45:29;;;;;;;9.30;2.80;;;;;;;14.18;60.01;101107.50;5207351;56;1136958;-70
2022/09/07 00:50:46;;;;;;;10.68;2.72;;;;;;;14.13;59.94;101099.89;5137164;57;1136971;-67
2022/09/07 00:55:54;;;;;;;4.93;2.83;;;;;;;14.09;60.21;101099.78;5207020;56;1139169;-67
2022/09/07 01:00:59;;;;;;;4.20;2.60;;;;;;;14.00;60.42;101104.55;5180935;56;1136957;-66
2022/09/07 01:06:13;;;;;;;6.37;2.23;;;;;;;13.93;60.36;101106.85;5207236;56;1137066;-69
2022/09/07 01:11:23;;;;;;;7.10;2.73;;;;;;;13.89;60.58;101103.27;5207149;56;1137079;-71
2022/09/07 01:16:52;;;;;;;6.93;3.00;;;;;;;13.85;60.64;101099.16;5207134;56;1135148;-67
2022/09/07 01:22:27;;;;;;;6.37;2.90;;;;;;;13.79;60.74;101101.83;5137394;57;1139034;-70
2022/09/07 01:27:53;;;;;;;6.53;2.83;;;;;;;13.70;61.05;101098.12;5207019;56;1138922;-68
2022/09/07 01:33:28;;;;;;;6.13;3.40;;;;;;;13.67;61.12;101090.87;5177036;56;1139033;-66
2022/09/07 01:38:47;;;;;;;7.10;2.93;;;;;;;13.60;61.38;101084.34;5121625;57;1139239;-68
2022/09/07 01:44:21;;;;;;;7.73;3.20;;;;;;;13.56;61.28;101093.56;5039577;58;1139127;-70
2022/09/07 01:49:43;;;;;;;15.03;2.93;;;;;;;13.50;61.53;101083.41;5118310;57;1139245;-71
2022/09/07 01:54:56;;;;;;;11.97;2.97;;;;;;;13.46;61.66;101076.65;5101734;57;1141140;-69
2022/09/07 02:00:09;;;;;;;10.63;3.13;;;;;;;13.39;61.67;101071.00;5101886;58;1140992;-68
2022/09/07 02:05:32;;;;;;;6.40;2.73;;;;;;;13.32;61.91;101070.64;5101836;57;1139194;-67
2022/09/07 02:10:44;;;;;;;3.83;2.80;;;;;;;13.22;62.26;101068.37;5103483;57;1137256;-67
2022/09/07 02:16:05;;;;;;;4.83;2.67;;;;;;;13.18;62.24;101063.41;5102061;58;1136971;-69
2022/09/07 02:21:15;;;;;;;3.87;2.57;;;;;;;13.16;62.14;101072.83;5145836;57;1136916;-68
2022/09/07 02:26:25;;;;;;;4.03;2.30;;;;;;;13.14;62.23;101069.41;5084246;57;1136897;-68
2022/09/07 02:31:30;;;;;;;7.90;2.53;;;;;;;13.11;62.48;101076.80;5130933;57;1137246;-71
2022/09/07 02:36:40;;;;;;;3.93;2.47;;;;;;;13.08;62.38;101065.09;5083890;57;1137049;-68
2022/09/07 02:41:46;;;;;;;5.87;2.80;;;;;;;13.01;62.63;101068.22;5113210;57;1135003;-69
2022/09/07 02:47:27;;;;;;;16.13;3.07;;;;;;;12.97;62.41;101076.09;5079359;57;1135331;-69
2022/09/07 02:53:05;;;;;;;3.67;2.57;;;;;;;13.00;62.59;101078.48;5087335;56;1141280;-69
2022/09/07 02:58:36;;;;;;;11.77;3.27;;;;;;;12.92;62.70;101062.80;5069001;58;1139059;-67
2022/09/07 03:04:05;;;;;;;6.73;3.03;;;;;;;12.87;62.66;101052.53;5059154;58;1141130;-70
2022/09/07 03:09:21;;;;;;;9.00;2.83;;;;;;;12.80;62.68;101055.80;4994220;58;1139124;-68
2022/09/07 03:14:29;;;;;;;11.27;2.40;;;;;;;12.74;62.92;101061.09;5043545;57;1139374;-68
2022/09/07 03:19:35;;;;;;;9.77;3.60;;;;;;;12.69;62.95;101064.10;5073879;58;1141330;-69
2022/09/07 03:24:41;;;;;;;9.40;3.77;;;;;;;12.65;63.01;101069.31;5035597;58;1139033;-67
2022/09/07 03:29:48;;;;;;;7.57;3.20;;;;;;;12.60;63.06;101062.66;4887488;59;1139107;-67
2022/09/07 03:34:53;;;;;;;9.20;3.50;;;;;;;12.55;63.10;101051.55;5042583;58;1139192;-69
2022/09/07 03:40:01;;;;;;;10.60;3.10;;;;;;;12.55;63.28;101044.91;5075254;58;1139110;-70
2022/09/07 03:45:08;;;;;;;3.60;2.87;;;;;;;12.51;63.30;101045.66;5094454;58;1141139;-70
2022/09/07 03:50:15;;;;;;;5.63;2.70;;;;;;;12.50;63.33;101054.58;5078434;56;1139079;-68
2022/09/07 03:55:20;;;;;;;6.60;3.72;;;;;;;12.49;63.30;101047.58;5207346;56;1139018;-67
2022/09/07 04:00:26;;;;;;;7.90;3.03;;;;;;;12.42;63.36;101049.00;5207355;56;1139031;-68
2022/09/07 04:05:33;;;;;;;11.87;3.27;;;;;;;12.38;63.47;101050.66;5207483;56;1137193;-67
2022/09/07 04:10:40;;;;;;;9.43;3.30;;;;;;;12.34;63.76;101048.75;5207270;56;1138969;-65
2022/09/07 04:15:45;;;;;;;20.13;3.47;;;;;;;12.28;64.05;101048.73;5121088;57;1137314;-68
2022/09/07 04:20:51;;;;;;;7.30;3.87;;;;;;;12.22;63.90;101047.86;5058706;58;1139012;-65
2022/09/07 04:25:57;;;;;;;2.60;2.40;;;;;;;12.15;64.21;101043.16;5207413;56;1136978;-68
2022/09/07 04:31:05;;;;;;;6.50;3.20;;;;;;;12.05;64.64;101040.84;5141954;57;1137151;-69
2022/09/07 04:36:11;;;;;;;6.67;2.93;;;;;;;11.96;64.47;101035.25;5092655;57;1136954;-66
2022/09/07 04:41:19;;;;;;;19.67;2.97;;;;;;;11.94;64.56;101038.97;5207329;56;1136914;-69
2022/09/07 04:46:35;;;;;;;4.63;2.83;;;;;;;11.95;64.46;101028.73;5207188;56;1139233;-68
2022/09/07 04:51:43;;;;;;;4.53;2.87;;;;;;;11.91;64.79;101026.83;5191622;56;1136978;-68
2022/09/07 04:56:48;;;;;;;11.23;3.30;;;;;;;11.93;64.80;101024.03;5056006;58;1137066;-70
2022/09/07 05:01:54;;;;;;;4.20;2.63;;;;;;;11.87;65.12;101017.41;5025863;58;1139101;-66
2022/09/07 05:07:00;;;;;;;5.47;3.13;;;;;;;11.84;64.97;101009.67;5163995;56;1137039;-69
2022/09/07 05:12:08;;;;;;;9.30;3.63;;;;;;;11.83;65.10;101014.61;5159964;56;1137119;-68
2022/09/07 05:17:13;;;;;;;9.57;3.00;;;;;;;11.85;65.27;101010.52;5144804;56;1136914;-67
2022/09/07 05:22:21;;;;;;;5.10;2.73;;;;;;;11.90;65.01;101010.55;5178431;56;1134906;-64
2022/09/07 05:27:26;;;;;;;7.70;3.47;;;;;;;11.92;65.03;101013.91;5189018;56;1203663;-64
2022/09/07 05:32:32;;;;;;;6.50;3.40;;;;;;;11.95;65.23;101030.91;5131395;57;1139009;-70
2022/09/07 05:37:38;;;;;;;7.07;3.17;;;;;;;12.00;65.23;101024.42;5044632;58;1139034;-67
2022/09/07 05:42:43;;;;;;;17.37;3.40;;;;;;;12.09;65.45;101033.84;5105772;57;1139099;-68
2022/09/07 05:47:50;;;;;;;9.13;3.17;;;;;;;12.31;65.23;101022.45;5117273;57;1141058;-68
2022/09/07 05:52:56;;;;;;;9.87;3.60;;;;;;;12.52;64.70;101018.64;5107122;57;1139305;-67
2022/09/07 05:58:02;;;;;;;6.80;2.73;;;;;;;12.78;64.51;101020.57;5141111;57;1139023;-67
2022/09/07 06:03:08;;;;;;;8.60;2.87;;;;;;;13.07;63.84;101020.91;5141167;57;1138969;-71
2022/09/07 06:08:14;;;;;;;11.03;3.20;;;;;;;13.45;62.32;101012.52;5134793;57;1139024;-70
2022/09/07 06:13:25;;;;;;;13.00;2.93;;;;;;;13.45;62.32;101012.52;5099069;57;1141100;-70
2022/09/07 06:18:35;;;;;;;;;;;;;;;13.68;62.28;101011.48;5032631;58;1141338;-69
2022/09/07 06:23:42;;;;;;;10.20;2.73;;;;;;;13.94;61.24;101003.98;5022506;58;976340;-69
2022/09/07 06:28:49;;;;;;;15.30;2.90;;;;;;;14.21;60.64;100998.14;5033221;58;1139002;-69
2022/09/07 06:33:56;;;;;;;7.30;2.77;;;;;;;14.50;59.09;101005.87;5003190;58;1141115;-70
2022/09/07 06:39:02;;;;;;;11.35;2.55;;;;;;;14.78;57.87;101007.81;5098293;57;1139119;-67
2022/09/07 06:44:08;;;;;;;7.40;2.47;;;;;;;15.02;55.90;100998.63;5105698;57;1140986;-71
2022/09/07 06:49:14;;;;;;;5.23;2.40;;;;;;;15.27;55.59;100999.48;5056763;58;1139019;-70
2022/09/07 06:54:20;;;;;;;7.87;2.50;;;;;;;15.45;53.87;100999.63;5143185;56;1139109;-71
2022/09/07 06:59:25;;;;;;;6.97;2.47;;;;;;;15.65;53.14;101005.36;5093737;57;1139145;-68
2022/09/07 07:04:31;;;;;;;5.57;1.83;;;;;;;15.92;53.31;100999.80;5092847;57;1138964;-66
2022/09/07 07:09:38;;;;;;;11.70;2.40;;;;;;;16.11;51.79;101003.30;5151096;56;1139024;-69
2022/09/07 07:14:45;;;;;;;9.73;2.40;;;;;;;16.35;51.27;101005.48;5150168;56;1141210;-68
2022/09/07 07:19:51;;;;;;;11.50;2.53;;;;;;;16.59;50.97;101008.17;5161522;56;1139342;-67
2022/09/07 07:24:56;;;;;;;11.53;2.77;;;;;;;16.73;49.60;101009.07;5018304;58;1141312;-70
2022/09/07 07:30:02;;;;;;;14.70;2.80;;;;;;;16.87;48.92;101001.91;5151034;56;1141146;-71
2022/09/07 07:35:09;;;;;;;9.40;2.53;;;;;;;17.13;49.30;101006.89;5172469;56;1141102;-71
2022/09/07 07:40:15;;;;;;;10.13;2.73;;;;;;;17.32;46.64;101007.28;5165594;56;1139125;-67
2022/09/07 07:45:21;;;;;;;7.87;2.30;;;;;;;17.45;46.44;101001.56;5178049;57;1141098;-69
2022/09/07 07:50:28;;;;;;;13.67;3.00;;;;;;;17.62;45.98;101009.25;5160826;56;1139066;-71
2022/09/07 08:00:37;;;;;;;4.10;2.30;;;;;;;18.13;45.70;101000.04;5286669;55;46281;-70
2022/09/07 08:05:42;;;;;;;4.95;2.35;;;;;;;18.18;44.51;100993.69;5095824;57;1134854;-68
2022/09/07 08:10:48;;;;;;;2.40;1.90;;;;;;;18.33;43.75;100992.66;5107133;56;1139087;-67
2022/09/07 08:16:00;;;;;;;3.03;1.93;;;;;;;18.45;43.72;100987.86;4983200;58;1139053;-69
2022/09/07 08:21:12;;;;;;;4.47;2.37;;;;;;;18.47;44.00;100987.21;4937558;59;1139299;-67
2022/09/07 08:26:18;;;;;;;3.45;1.90;;;;;;;18.53;44.30;100983.38;5042843;56;1139220;-70
2022/09/07 08:31:25;;;;;;;3.75;1.92;;;;;;;18.55;43.54;100990.77;5132486;56;1138943;-68
2022/09/07 08:36:30;;;;;;;5.05;1.90;;;;;;;18.66;42.89;100986.15;5127120;57;1137177;-66
2022/09/07 08:41:53;;;;;;;8.10;1.73;;;;;;;18.85;42.26;100989.93;5125644;57;1137173;-70
2022/09/07 08:47:50;;;;;;;5.43;2.43;;;;;;;18.98;42.37;100993.00;5099005;57;1137597;-68
2022/09/07 08:53:16;;;;;;;5.92;1.65;;;;;;;18.92;42.61;100989.64;5032970;58;1137034;-67
2022/09/07 08:58:38;;;;;;;6.40;1.70;;;;;;;18.96;42.21;100990.97;5027851;57;1139152;-66
2022/09/07 09:03:46;;;;;;;16.57;2.37;;;;;;;19.04;43.57;100987.00;5029363;58;1138929;-63
2022/09/07 09:09:37;;;;;;;7.92;2.47;;;;;;;19.19;42.83;100980.51;5025928;58;1141146;-67
2022/09/07 09:15:06;;;;;;;11.28;1.75;;;;;;;19.25;42.04;100971.79;5025754;58;1139269;-65
2022/09/07 09:20:36;;;;;;;7.90;2.10;;;;;;;19.43;43.01;100964.95;5056401;57;1141242;-70
2022/09/07 09:25:58;;;;;;;8.25;1.77;;;;;;;19.70;41.83;100959.84;5060464;58;1138940;-70
2022/09/07 09:31:04;;;;;;;4.72;1.35;;;;;;;19.92;39.78;100957.30;5053462;57;1139074;-66
2022/09/07 09:36:23;;;;;;;7.25;1.77;;;;;;;20.17;38.06;100955.92;5005550;58;1139054;-70
2022/09/07 09:41:37;;;;;;;11.45;1.42;;;;;;;20.26;39.33;100946.85;4994379;58;1138947;-70
2022/09/07 09:46:51;;;;;;;1.57;1.20;;;;;;;20.63;38.20;100950.28;5021604;58;1139009;-66
2022/09/07 09:51:59;;;;;;;2.98;1.42;;;;;;;20.91;36.68;100945.31;5111556;56;1137190;-67
2022/09/07 09:57:05;;;;;;;4.50;1.62;;;;;;;21.18;36.33;100948.86;5196143;56;1137020;-67
2022/09/07 10:02:30;;;;;;;10.82;1.52;;;;;;;21.30;35.88;100942.59;5063003;57;1137245;-68
2022/09/07 10:07:36;;;;;;;8.45;1.60;;;;;;;21.35;36.42;100926.75;5194052;55;1139073;-70
2022/09/07 10:12:43;;;;;;;9.15;1.50;;;;;;;21.63;35.72;100920.31;5190701;57;1136955;-70
2022/09/07 10:17:52;;;;;;;6.42;1.35;;;;;;;21.88;36.84;100913.68;5158821;57;1137158;-69
2022/09/07 10:22:59;;;;;;;8.58;1.77;;;;;;;22.04;34.43;100908.67;5189193;57;1137287;-70
2022/09/07 10:28:15;;;;;;;3.83;1.07;;;;;;;22.10;34.27;100907.95;5195058;57;1137154;-70
2022/09/07 10:33:25;;;;;;;;;;;;;;;22.03;34.43;100913.73;5173916;57;1136926;-68
2022/09/07 10:38:36;;;;;;;9.23;1.60;;;;;;;22.16;35.42;100896.92;5181319;57;976581;-70
2022/09/07 10:43:49;;;;;;;3.83;1.82;;;;;;;22.40;34.34;100900.20;5105629;58;1136930;-67
2022/09/07 10:49:36;;;;;;;11.85;1.50;;;;;;;22.51;34.18;100888.09;5188828;57;1138982;-70
2022/09/07 10:54:49;;;;;;;10.50;1.55;;;;;;;22.46;34.95;100890.51;5147327;56;1141100;-67
2022/09/07 11:00:02;;;;;;;3.75;1.10;;;;;;;22.35;34.12;100892.34;5148408;56;1141045;-70
2022/09/07 11:05:40;;;;;;;10.13;1.82;;;;;;;22.26;35.00;100881.34;5120374;57;1139416;-69
2022/09/07 11:10:53;;;;;;;5.22;1.35;;;;;;;22.32;33.95;100875.19;5159320;56;1141356;-71
2022/09/07 11:16:09;;;;;;;9.68;1.45;;;;;;;22.15;34.45;100881.30;5165469;56;1139163;-70
2022/09/07 11:21:20;;;;;;;3.08;1.60;;;;;;;22.17;34.70;100879.74;5178613;56;1139061;-69
2022/09/07 11:26:52;;;;;;;6.62;1.85;;;;;;;22.12;34.82;100880.31;5188478;56;1139034;-69
2022/09/07 11:32:05;;;;;;;6.70;1.80;;;;;;;22.18;35.43;100877.37;5167793;56;1139011;-69
2022/09/07 11:37:34;;;;;;;3.45;1.20;;;;;;;22.30;33.23;100890.22;5191723;56;1137167;-72
2022/09/07 11:43:02;;;;;;;3.55;1.72;;;;;;;22.36;33.93;100890.80;5156737;56;1136859;-69
2022/09/07 11:48:36;;;;;;;5.03;1.05;;;;;;;22.50;33.93;100889.62;5165414;56;1136929;-67
2022/09/07 11:53:46;;;;;;;1.77;1.10;;;;;;;22.69;34.98;100878.27;5186074;56;1135131;-69
2022/09/07 11:59:11;;;;;;;7.60;1.30;;;;;;;22.92;33.62;100861.44;5162964;56;1139049;-68
2022/09/07 12:04:53;;;;;;;7.12;1.77;;;;;;;23.02;33.42;100857.94;5182268;56;1138980;-69
2022/09/07 12:10:24;;;;;;;8.95;1.65;;;;;;;23.19;32.54;100849.08;5181630;56;1138958;-73
2022/09/07 12:16:09;;;;;;;5.15;1.27;;;;;;;23.23;32.87;100863.83;5178864;56;1139057;-67
2022/09/07 12:21:54;;;;;;;3.12;1.50;;;;;;;23.14;32.67;100865.00;5175051;56;1139276;-70
2022/09/07 12:27:03;;;;;;;5.47;1.47;;;;;;;23.07;32.42;100851.43;5181260;56;1138981;-72
2022/09/07 12:32:10;;;;;;;1.32;0.98;;;;;;;22.87;33.05;100835.57;5209405;55;1139161;-67
2022/09/07 12:37:38;;;;;;;2.25;1.52;;;;;;;22.94;33.02;100832.92;5226862;55;1137157;-69
2022/09/07 12:42:43;;;;;;;16.30;2.42;;;;;;;23.03;32.60;100823.70;5208859;55;1136955;-67
2022/09/07 12:47:59;;;;;;;8.13;1.32;;;;;;;23.17;33.13;100813.86;5183460;56;1139506;-69
2022/09/07 12:53:15;;;;;;;5.62;1.90;;;;;;;23.29;32.54;100806.91;5177012;55;1137045;-70
2022/09/07 12:59:15;;;;;;;7.15;1.77;;;;;;;23.28;31.61;100805.23;5152291;56;1137000;-67
2022/09/07 13:04:54;;;;;;;7.67;1.42;;;;;;;23.38;32.21;100819.22;5234800;55;1139034;-68
2022/09/07 13:10:04;;;;;;;4.85;1.45;;;;;;;23.50;32.09;100820.38;5274322;55;1139011;-67
2022/09/07 13:15:49;;;;;;;7.60;2.35;;;;;;;23.52;31.64;100831.86;5268954;55;1138381;-71
2022/09/07 13:21:14;;;;;;;;;;;;;;;23.55;32.38;100815.75;5248220;55;1139282;-68
2022/09/07 13:27:00;;;;;;;5.55;1.72;;;;;;;23.63;31.21;100810.22;5267067;55;976464;-71
2022/09/07 13:32:25;;;;;;;10.85;1.42;;;;;;;23.56;31.62;100799.87;5266064;55;1137245;-70
2022/09/07 13:37:36;;;;;;;7.20;1.40;;;;;;;23.68;31.81;100787.52;5252775;55;1139257;-70
2022/09/07 13:42:45;;;;;;;5.67;1.57;;;;;;;23.71;31.54;100794.69;5309926;55;1136823;-69
2022/09/07 13:48:04;;;;;;;6.97;2.17;;;;;;;23.78;31.51;100775.32;5266371;55;1136949;-72
2022/09/07 13:53:42;;;;;;;13.75;1.70;;;;;;;23.78;31.61;100768.56;5270477;55;1137485;-70
2022/09/07 13:58:51;;;;;;;6.62;1.30;;;;;;;23.85;32.37;100761.32;5265101;55;1139105;-68
2022/09/07 14:04:12;;;;;;;11.83;3.67;;;;;;;23.92;31.70;100756.48;5210883;55;1137036;-70
2022/09/07 14:09:18;;;;;;;6.83;2.90;;;;;;;23.91;31.40;100758.34;5211351;56;1218635;-68
2022/09/07 14:14:32;;;;;;;9.80;1.43;;;;;;;23.92;31.24;100753.78;5176820;56;1138943;-68
2022/09/07 14:19:43;;;;;;;11.55;1.90;;;;;;;23.81;31.41;100759.23;5185680;56;1139242;-69
2022/09/07 14:25:00;;;;;;;17.23;1.95;;;;;;;23.72;31.33;100753.14;5164123;56;1141139;-67
2022/09/07 14:30:30;;;;;;;2.80;1.80;;;;;;;23.79;31.98;100743.74;5200626;56;1141079;-70
2022/09/07 14:35:39;;;;;;;8.35;1.98;;;;;;;23.79;31.73;100747.80;5222818;55;1139021;-69
2022/09/07 14:40:45;;;;;;;10.35;2.92;;;;;;;23.75;31.84;100746.52;5225780;55;1139017;-69
2022/09/07 14:45:51;;;;;;;12.25;1.70;;;;;;;23.79;32.13;100735.64;5217673;56;1141365;-70
2022/09/07 14:50:57;;;;;;;8.48;1.77;;;;;;;23.78;31.45;100732.10;5200705;56;1141455;-68
2022/09/07 14:56:10;;;;;;;12.23;2.02;;;;;;;23.73;31.21;100739.96;5193507;55;1138914;-67
2022/09/07 15:01:21;;;;;;;5.08;1.87;;;;;;;23.70;31.71;100737.65;5206197;55;1141072;-69
2022/09/07 15:06:36;;;;;;;10.80;2.37;;;;;;;23.70;31.92;100739.52;5239588;55;1139053;-68
2022/09/07 15:11:42;;;;;;;17.87;2.47;;;;;;;23.56;31.55;100738.61;5226195;55;1141091;-68
2022/09/07 15:17:02;;;;;;;6.22;2.22;;;;;;;23.38;32.08;100726.09;5256662;55;1141240;-68
2022/09/07 15:22:11;;;;;;;2.17;1.50;;;;;;;23.35;32.25;100730.56;5250124;55;1139185;-66
2022/09/07 15:27:30;;;;;;;5.80;1.65;;;;;;;23.28;32.31;100725.11;5259806;55;1138992;-70
2022/09/07 15:32:36;;;;;;;9.53;1.90;;;;;;;23.19;32.17;100718.71;5239784;55;1139169;-67
2022/09/07 15:37:42;;;;;;;5.37;1.52;;;;;;;23.15;32.97;100711.52;5273703;55;1139237;-72
2022/09/07 15:42:48;;;;;;;11.05;2.42;;;;;;;23.22;32.67;100715.08;5256034;55;1138984;-64
2022/09/07 15:47:55;;;;;;;13.55;2.80;;;;;;;23.22;32.69;100708.33;5261750;55;1139278;-65
2022/09/07 15:53:00;;;;;;;11.28;2.15;;;;;;;23.27;32.61;100707.75;5262780;55;1139040;-71
2022/09/07 15:58:07;;;;;;;2.05;1.35;;;;;;;23.23;32.88;100696.52;5256890;55;1138958;-67
2022/09/07 16:03:13;;;;;;;17.95;2.42;;;;;;;23.17;32.26;100693.78;5258901;55;1136969;-68
2022/09/07 16:08:20;;;;;;;11.97;2.58;;;;;;;23.06;32.74;100700.05;5265527;55;1139326;-70
2022/09/07 16:13:36;;;;;;;17.80;3.35;;;;;;;23.01;32.61;100700.30;5255148;55;1139255;-70
2022/09/07 16:18:42;;;;;;;35.28;12.63;;;;;;;22.93;32.96;100695.88;5258064;55;1139029;-69
2022/09/07 16:23:52;;;;;;;258.25;134.35;;;;;;;22.90;33.11;100708.94;5261110;55;1141195;-69
2022/09/07 16:28:58;;;;;;;33.35;8.23;;;;;;;22.86;33.17;100699.55;5270562;55;1145484;-70
2022/09/07 16:34:04;;;;;;;76.30;47.40;;;;;;;22.82;33.56;100699.11;5256485;55;1139017;-66
2022/09/07 16:39:10;;;;;;;21.73;7.37;;;;;;;22.83;33.66;100703.98;5243566;55;1141200;-69
2022/09/07 16:44:16;;;;;;;15.25;6.42;;;;;;;22.52;33.36;100677.33;5250833;55;1139340;-68
2022/09/07 16:49:22;;;;;;;12.50;4.62;;;;;;;22.52;33.36;100677.33;5186184;56;1139650;-68
2022/09/07 16:54:27;;;;;;;26.35;10.88;;;;;;;22.41;33.73;100683.56;5133515;57;1138482;-69
2022/09/07 16:59:33;;;;;;;50.70;16.52;;;;;;;22.27;33.83;100676.88;5101743;57;1141151;-67
2022/09/07 17:04:39;;;;;;;18.62;10.82;;;;;;;22.14;34.46;100685.66;5067396;57;1139051;-71
2022/09/07 17:09:45;;;;;;;28.52;9.35;;;;;;;22.02;34.89;100681.77;5219196;56;1139031;-69
2022/09/07 17:14:52;;;;;;;28.38;7.76;;;;;;;21.84;35.38;100679.98;5227161;56;1141086;-70
2022/09/07 17:19:58;;;;;;;18.80;9.93;;;;;;;21.67;35.82;100682.04;5120410;56;1141119;-68
2022/09/07 17:25:04;;;;;;;16.53;7.63;;;;;;;21.50;35.99;100684.09;5219634;56;1141125;-73
2022/09/07 17:30:11;;;;;;;27.50;7.80;;;;;;;21.40;36.34;100688.89;5193404;56;1141105;-73
2022/09/07 17:35:18;;;;;;;52.10;20.62;;;;;;;21.29;36.55;100687.50;5154753;55;1141137;-73
2022/09/07 17:40:24;;;;;;;34.70;17.17;;;;;;;21.17;37.01;100688.11;5208009;56;1143483;-64
2022/09/07 17:45:30;;;;;;;29.12;12.63;;;;;;;20.99;37.21;100690.63;5211136;55;1143416;-71
2022/09/07 17:50:36;;;;;;;35.00;12.47;;;;;;;20.83;37.50;100693.46;5167828;56;1143464;-67
2022/09/07 17:55:44;;;;;;;46.65;23.35;;;;;;;20.76;37.72;100702.44;5219346;55;1143336;-67
2022/09/07 18:00:51;;;;;;;21.37;7.80;;;;;;;20.63;37.93;100698.48;5211122;55;1143716;-67
2022/09/07 18:05:56;;;;;;;24.40;9.45;;;;;;;20.51;38.34;100688.34;5169063;56;1141118;-67
2022/09/07 18:11:09;;;;;;;26.07;12.95;;;;;;;20.34;38.57;100689.77;5231423;56;1141313;-71
2022/09/07 18:16:29;;;;;;;9.38;5.30;;;;;;;20.21;38.95;100700.26;5216630;55;1143192;-70
2022/09/07 18:21:39;;;;;;;3.37;2.40;;;;;;;20.14;39.09;100710.56;5203335;56;1138953;-69
2022/09/07 18:26:45;;;;;;;4.75;2.42;;;;;;;20.08;39.33;100713.94;5174228;56;1139047;-72
2022/09/07 18:31:51;;;;;;;7.58;2.80;;;;;;;19.99;39.20;100711.81;5228205;56;1139216;-69
2022/09/07 18:36:58;;;;;;;27.98;3.47;;;;;;;19.92;39.35;100730.95;4998717;58;1139154;-70
2022/09/07 18:42:04;;;;;;;13.42;3.36;;;;;;;19.86;39.28;100733.81;5023709;57;1141324;-73
2022/09/07 18:47:10;;;;;;;8.23;3.55;;;;;;;19.85;39.44;100730.83;5113485;56;1141043;-69
2022/09/07 18:52:17;;;;;;;7.90;4.00;;;;;;;19.79;39.11;100727.99;5112899;56;1138993;-68
2022/09/07 18:57:23;;;;;;;16.25;3.47;;;;;;;19.66;39.67;100735.25;5108495;57;1139048;-66
2022/09/07 19:02:28;;;;;;;8.98;2.95;;;;;;;19.54;39.92;100739.32;5108358;57;1141306;-70
2022/09/07 19:07:34;;;;;;;12.47;4.70;;;;;;;19.37;40.30;100737.64;5132313;56;1139024;-68
2022/09/07 19:12:40;;;;;;;46.18;17.20;;;;;;;19.24;40.49;100746.22;5117710;57;1141232;-69
2022/09/07 19:17:46;;;;;;;23.05;13.20;;;;;;;19.14;40.62;100745.03;5103451;57;1143108;-66
2022/09/07 19:22:52;;;;;;;16.37;5.62;;;;;;;19.08;40.68;100738.19;5028098;58;1143202;-70
2022/09/07 19:27:58;;;;;;;15.78;6.15;;;;;;;19.04;40.68;100734.16;5105165;57;1141433;-69
2022/09/07 19:33:08;;;;;;;20.08;5.55;;;;;;;18.97;40.64;100728.63;5154456;57;1141608;-69
2022/09/07 19:38:11;;;;;;;14.70;5.67;;;;;;;18.89;40.69;100724.11;5114992;57;1141513;-70
2022/09/07 19:43:17;;;;;;;17.73;5.60;;;;;;;18.81;40.78;100712.54;5104963;57;1141640;-67
2022/09/07 19:48:23;;;;;;;11.05;3.77;;;;;;;18.72;40.94;100711.72;5024002;58;1141046;-67
2022/09/07 19:53:31;;;;;;;15.68;5.05;;;;;;;18.68;41.13;100720.24;5109751;57;1141108;-71
2022/09/07 19:58:41;;;;;;;13.70;5.28;;;;;;;18.63;41.12;100719.92;5060487;58;1141207;-69
2022/09/07 20:03:50;;;;;;;15.00;4.45;;;;;;;18.55;41.19;100710.83;5067859;58;1139028;-71
2022/09/07 20:08:57;;;;;;;21.75;3.85;;;;;;;18.53;41.44;100710.16;5135148;57;1138971;-64
2022/09/07 20:14:03;;;;;;;9.55;3.95;;;;;;;18.46;41.34;100706.98;5241250;56;1138996;-74
2022/09/07 20:19:10;;;;;;;5.10;3.27;;;;;;;18.40;41.51;100692.89;5241162;56;1137145;-72
2022/09/07 20:24:21;;;;;;;13.18;3.28;;;;;;;18.32;41.65;100696.41;5241221;56;1136915;-65
2022/09/07 20:29:23;;;;;;;23.77;4.33;;;;;;;18.28;41.77;100690.55;5175376;56;1139196;-69
2022/09/07 20:34:31;;;;;;;8.15;2.72;;;;;;;18.23;41.83;100692.03;5207442;56;1139654;-68
2022/09/07 20:39:36;;;;;;;2.60;2.20;;;;;;;18.16;42.06;100685.67;5290117;55;1137230;-66
2022/09/07 20:44:42;;;;;;;7.95;3.65;;;;;;;18.05;42.32;100684.62;5174961;56;1137195;-69
2022/09/07 20:49:47;;;;;;;10.88;3.30;;;;;;;17.97;42.56;100678.75;5154730;57;1137430;-68
2022/09/07 20:54:53;;;;;;;9.85;2.60;;;;;;;17.95;42.53;100682.09;5219373;56;1139389;-69
2022/09/07 20:59:59;;;;;;;6.83;2.67;;;;;;;17.91;42.59;100691.44;5236671;56;1137279;-70
2022/09/07 21:05:06;;;;;;;6.48;2.92;;;;;;;17.86;42.68;100687.09;5228689;55;1137134;-70
2022/09/07 21:10:13;;;;;;;6.12;2.70;;;;;;;17.77;42.94;100679.52;5120080;57;1137083;-67
2022/09/07 21:15:19;;;;;;;12.13;3.00;;;;;;;17.67;43.20;100676.64;5211122;56;1136956;-70
2022/09/07 21:20:25;;;;;;;16.55;3.33;;;;;;;17.63;43.43;100684.11;5101672;57;1139281;-69
2022/09/07 21:25:31;;;;;;;9.48;3.12;;;;;;;17.58;43.56;100689.09;5259192;56;1139033;-67
2022/09/07 21:30:37;;;;;;;5.03;2.60;;;;;;;17.53;43.74;100689.59;5160455;56;1134881;-71
2022/09/07 21:35:43;;;;;;;7.20;2.87;;;;;;;17.49;43.84;100698.08;5253358;55;1237844;-69
2022/09/07 21:40:49;;;;;;;9.13;3.50;;;;;;;17.46;44.08;100689.88;5204891;56;1139017;-67
2022/09/07 21:45:57;;;;;;;6.03;2.87;;;;;;;17.38;44.26;100680.98;5107774;56;1138394;-66
2022/09/07 21:51:03;;;;;;;8.07;2.37;;;;;;;17.28;44.42;100682.91;5118376;57;1138997;-68
2022/09/07 21:56:12;;;;;;;18.32;3.62;;;;;;;17.31;44.53;100694.63;5109946;57;1139016;-70
2022/09/07 22:01:20;;;;;;;5.03;2.83;;;;;;;17.33;44.56;100694.82;5107320;57;1141156;-69
2022/09/07 22:06:29;;;;;;;7.47;3.67;;;;;;;17.34;44.59;100695.66;5117838;57;1138918;-71
2022/09/07 22:11:35;;;;;;;5.53;2.85;;;;;;;17.28;44.77;100698.95;5115995;57;1139091;-70
2022/09/07 22:16:41;;;;;;;8.50;2.90;;;;;;;17.23;45.05;100679.40;5121649;56;1139002;-69
2022/09/07 22:21:47;;;;;;;9.77;2.87;;;;;;;17.20;45.01;100681.05;5105178;57;1139038;-66
2022/09/07 22:26:54;;;;;;;8.03;2.77;;;;;;;17.16;45.07;100687.69;5076990;57;1139282;-66
2022/09/07 22:32:00;;;;;;;8.40;2.53;;;;;;;17.11;45.19;100673.45;5076967;57;1139177;-64
2022/09/07 22:37:05;;;;;;;4.77;3.10;;;;;;;17.09;45.37;100675.97;5171302;56;1139067;-66
2022/09/07 22:42:11;;;;;;;9.83;3.63;;;;;;;17.04;45.55;100663.56;5192471;57;1139266;-67
2022/09/07 22:47:17;;;;;;;5.83;2.50;;;;;;;17.01;45.43;100670.55;5150395;57;1139069;-71
2022/09/07 22:52:23;;;;;;;7.03;2.83;;;;;;;16.97;45.56;100667.34;5150598;57;1139209;-73
2022/09/07 22:57:29;;;;;;;5.53;3.13;;;;;;;16.95;45.53;100658.68;5150493;57;1139254;-67
2022/09/07 23:02:35;;;;;;;3.77;2.30;;;;;;;16.95;45.56;100655.17;5105009;57;1139018;-70
2022/09/07 23:07:40;;;;;;;4.30;3.10;;;;;;;16.94;45.62;100647.65;5075601;57;1139083;-64
2022/09/07 23:12:46;;;;;;;8.53;2.43;;;;;;;16.92;45.94;100634.10;5201262;56;1138944;-71
2022/09/07 23:17:52;;;;;;;10.80;2.97;;;;;;;16.90;45.83;100638.27;5055058;58;1139052;-66
2022/09/07 23:22:58;;;;;;;4.83;2.40;;;;;;;16.88;45.98;100638.91;5055135;58;1141344;-67
2022/09/07 23:28:06;;;;;;;3.33;2.33;;;;;;;16.88;46.10;100644.25;5054890;58;1139042;-66
2022/09/07 23:33:12;;;;;;;7.37;2.77;;;;;;;16.87;46.21;100635.90;5055786;58;1139063;-71
2022/09/07 23:38:18;;;;;;;3.33;2.57;;;;;;;16.84;46.08;100631.70;5210271;56;1139026;-68